createdAt,value
2022-11-20T00:00:28.645Z,58.51
2022-11-20T00:01:28.652Z,58.29
2022-11-20T00:02:28.639Z,57.53
2022-11-20T00:03:28.618Z,57.84
2022-11-20T00:04:28.602Z,58.55
2022-11-20T00:05:28.598Z,58.54
2022-11-20T00:06:28.616Z,58.19
2022-11-20T00:07:28.604Z,58.45
2022-11-20T00:08:28.595Z,61.37
2022-11-20T00:09:28.563Z,59.65
2022-11-20T00:10:28.556Z,58.53
2022-11-20T00:11:29.567Z,58.65
2022-11-20T00:12:28.538Z,57.28
2022-11-20T00:13:28.528Z,56.98
2022-11-20T00:14:28.537Z,58.81
2022-11-20T00:15:28.509Z,58.64
2022-11-20T00:16:28.509Z,58.14
2022-11-20T00:17:28.492Z,58.43
2022-11-20T00:18:28.491Z,58.61
2022-11-20T00:19:28.470Z,59.59
2022-11-20T00:20:28.450Z,57.65
2022-11-20T00:21:28.476Z,58.20
2022-11-20T00:22:28.459Z,58.88
2022-11-20T00:23:28.453Z,57.87
2022-11-20T00:24:28.422Z,59.08
2022-11-20T00:25:28.417Z,56.61
2022-11-20T00:26:28.414Z,58.28
2022-11-20T00:27:29.397Z,57.76
2022-11-20T00:28:28.395Z,57.15
2022-11-20T00:29:28.383Z,57.06
2022-11-20T00:30:29.379Z,56.74
2022-11-20T00:31:28.392Z,58.07
2022-11-20T00:32:28.406Z,56.41
2022-11-20T00:33:28.347Z,57.15
2022-11-20T00:34:28.337Z,58.36
2022-11-20T00:35:28.364Z,57.76
2022-11-20T00:36:28.323Z,58.69
2022-11-20T00:37:28.305Z,59.17
2022-11-20T00:38:28.299Z,59.74
2022-11-20T00:39:28.294Z,59.32
2022-11-20T00:40:28.281Z,58.50
2022-11-20T00:41:28.296Z,59.83
2022-11-20T00:42:28.264Z,58.20
2022-11-20T00:43:28.280Z,57.42
2022-11-20T00:44:28.238Z,59.09
2022-11-20T00:45:28.243Z,56.40
2022-11-20T00:46:28.253Z,56.94
2022-11-20T00:47:28.221Z,57.29
2022-11-20T00:48:28.218Z,56.57
2022-11-20T00:49:28.204Z,59.28
2022-11-20T00:50:28.219Z,58.37
2022-11-20T00:51:28.207Z,57.47
2022-11-20T00:52:28.170Z,57.43
2022-11-20T00:53:28.174Z,58.36
2022-11-20T00:54:28.159Z,57.20
2022-11-20T00:55:28.162Z,56.43
2022-11-20T00:56:28.159Z,57.43
2022-11-20T00:57:28.132Z,56.59
2022-11-20T00:58:28.135Z,54.82
2022-11-20T00:59:28.117Z,55.56
2022-11-20T01:00:28.098Z,56.52
2022-11-20T01:01:28.150Z,56.06
2022-11-20T01:02:28.091Z,57.81
2022-11-20T01:03:28.084Z,56.02
2022-11-20T01:04:28.103Z,56.59
2022-11-20T01:05:28.065Z,56.24
2022-11-20T01:06:28.069Z,57.15
2022-11-20T01:07:28.081Z,59.21
2022-11-20T01:08:28.059Z,57.56
2022-11-20T01:09:28.025Z,58.67
2022-11-20T01:10:28.019Z,58.88
2022-11-20T01:11:28.020Z,58.75
2022-11-20T01:12:28.064Z,58.79
2022-11-20T01:13:27.987Z,59.18
2022-11-20T01:14:27.978Z,58.54
2022-11-20T01:15:27.962Z,58.79
2022-11-20T01:16:27.980Z,58.25
2022-11-20T01:17:27.949Z,56.85
2022-11-20T01:18:27.949Z,57.73
2022-11-20T01:19:27.932Z,56.53
2022-11-20T01:20:27.912Z,58.42
2022-11-20T01:21:28.926Z,57.13
2022-11-20T01:22:27.909Z,59.66
2022-11-20T01:23:27.893Z,59.45
2022-11-20T01:24:27.888Z,58.37
2022-11-20T01:25:27.874Z,57.56
2022-11-20T01:26:27.885Z,59.67
2022-11-20T01:27:27.852Z,59.82
2022-11-20T01:28:27.854Z,58.30
2022-11-20T01:29:27.834Z,58.21
2022-11-20T01:30:27.820Z,58.82
2022-11-20T01:31:27.842Z,58.90
2022-11-20T01:32:27.815Z,58.98
2022-11-20T01:33:27.802Z,57.69
2022-11-20T01:34:27.790Z,57.18
2022-11-20T01:35:27.784Z,56.18
2022-11-20T01:36:27.800Z,57.17
2022-11-20T01:37:27.783Z,56.75
2022-11-20T01:38:27.750Z,56.45
2022-11-20T01:39:27.751Z,57.85
2022-11-20T01:40:27.739Z,57.41
2022-11-20T01:41:27.782Z,59.42
2022-11-20T01:42:27.717Z,57.80
2022-11-20T01:43:27.707Z,57.60
2022-11-20T01:44:27.698Z,58.13
2022-11-20T01:45:27.696Z,58.87
2022-11-20T01:46:27.791Z,59.78
2022-11-20T01:47:27.686Z,58.38
2022-11-20T01:48:27.659Z,58.30
2022-11-20T01:49:27.655Z,61.06
2022-11-20T01:50:27.640Z,59.69
2022-11-20T01:51:27.628Z,59.25
2022-11-20T01:52:27.644Z,57.08
2022-11-20T01:53:27.659Z,57.72
2022-11-20T01:54:27.598Z,59.33
2022-11-20T01:55:27.647Z,57.77
2022-11-20T01:56:27.588Z,58.24
2022-11-20T01:57:27.652Z,57.44
2022-11-20T01:58:27.567Z,57.51
2022-11-20T01:59:27.554Z,57.07
2022-11-20T02:00:27.564Z,57.93
2022-11-20T02:01:27.576Z,56.90
2022-11-20T02:02:28.547Z,57.22
2022-11-20T02:03:27.534Z,56.37
2022-11-20T02:04:27.514Z,57.82
2022-11-20T02:05:27.504Z,57.10
2022-11-20T02:06:27.483Z,58.38
2022-11-20T02:07:27.563Z,58.10
2022-11-20T02:08:27.473Z,56.47
2022-11-20T02:09:27.461Z,57.20
2022-11-20T02:10:27.450Z,56.79
2022-11-20T02:11:27.439Z,58.87
2022-11-20T02:12:27.452Z,57.24
2022-11-20T02:13:27.418Z,56.79
2022-11-20T02:14:27.420Z,56.25
2022-11-20T02:15:30.221Z,57.09
2022-11-20T02:16:28.395Z,57.87
2022-11-20T02:17:27.426Z,55.89
2022-11-20T02:18:27.368Z,56.68
2022-11-20T02:19:27.361Z,57.44
2022-11-20T02:20:27.358Z,55.56
2022-11-20T02:21:27.348Z,56.51
2022-11-20T02:22:27.358Z,57.39
2022-11-20T02:23:27.336Z,58.02
2022-11-20T02:24:27.322Z,56.54
2022-11-20T02:25:27.305Z,56.49
2022-11-20T02:26:27.293Z,57.46
2022-11-20T02:27:27.313Z,56.79
2022-11-20T02:28:27.280Z,57.66
2022-11-20T02:29:27.279Z,58.15
2022-11-20T02:30:27.254Z,58.74
2022-11-20T02:31:27.256Z,60.10
2022-11-20T02:32:27.294Z,58.54
2022-11-20T02:33:27.239Z,57.61
2022-11-20T02:34:27.229Z,57.96
2022-11-20T02:35:27.219Z,58.75
2022-11-20T02:36:27.208Z,60.16
2022-11-20T02:37:28.220Z,60.27
2022-11-20T02:38:27.181Z,55.96
2022-11-20T02:39:27.184Z,56.13
2022-11-20T02:40:27.174Z,57.76
2022-11-20T02:41:27.159Z,57.66
2022-11-20T02:42:27.164Z,57.08
2022-11-20T02:43:27.168Z,56.55
2022-11-20T02:44:27.136Z,56.73
2022-11-20T02:45:27.131Z,56.68
2022-11-20T02:46:27.117Z,57.11
2022-11-20T02:47:27.124Z,57.32
2022-11-20T02:48:30.123Z,57.22
2022-11-20T02:49:28.091Z,56.32
2022-11-20T02:50:27.074Z,56.43
2022-11-20T02:51:27.075Z,54.90
2022-11-20T02:52:27.081Z,54.93
2022-11-20T02:53:27.055Z,56.67
2022-11-20T02:54:27.037Z,55.04
2022-11-20T02:55:27.036Z,56.46
2022-11-20T02:56:27.044Z,56.09
2022-11-20T02:57:27.039Z,57.04
2022-11-20T02:58:26.999Z,56.55
2022-11-20T02:59:27.007Z,56.21
2022-11-20T03:00:26.998Z,55.48
2022-11-20T03:01:27.015Z,56.52
2022-11-20T03:02:26.982Z,57.18
2022-11-20T03:03:26.967Z,55.66
2022-11-20T03:04:26.959Z,58.06
2022-11-20T03:05:26.948Z,57.25
2022-11-20T03:06:26.940Z,55.79
2022-11-20T03:07:26.952Z,55.77
2022-11-20T03:08:26.907Z,56.86
2022-11-20T03:09:27.902Z,56.68
2022-11-20T03:10:26.902Z,56.86
2022-11-20T03:11:26.883Z,58.31
2022-11-20T03:12:26.898Z,57.66
2022-11-20T03:13:26.872Z,59.45
2022-11-20T03:14:26.859Z,58.45
2022-11-20T03:15:26.852Z,56.10
2022-11-20T03:16:26.845Z,57.77
2022-11-20T03:17:26.848Z,56.04
2022-11-20T03:18:26.826Z,55.88
2022-11-20T03:19:26.832Z,56.01
2022-11-20T03:20:26.801Z,56.09
2022-11-20T03:21:26.794Z,57.85
2022-11-20T03:22:26.802Z,56.43
2022-11-20T03:23:26.776Z,57.81
2022-11-20T03:24:26.767Z,55.10
2022-11-20T03:25:26.753Z,55.34
2022-11-20T03:26:26.733Z,57.38
2022-11-20T03:27:26.763Z,56.25
2022-11-20T03:28:26.726Z,60.38
2022-11-20T03:29:26.720Z,56.91
2022-11-20T03:30:30.507Z,55.48
2022-11-20T03:31:26.708Z,55.52
2022-11-20T03:32:26.712Z,56.26
2022-11-20T03:33:26.680Z,57.48
2022-11-20T03:34:26.676Z,57.58
2022-11-20T03:35:26.667Z,55.92
2022-11-20T03:36:26.652Z,56.99
2022-11-20T03:37:26.664Z,57.94
2022-11-20T03:38:26.643Z,56.75
2022-11-20T03:39:26.661Z,57.28
2022-11-20T03:40:26.610Z,57.56
2022-11-20T03:41:26.650Z,57.91
2022-11-20T03:42:26.616Z,57.15
2022-11-20T03:43:26.598Z,58.63
2022-11-20T03:44:26.576Z,57.15
2022-11-20T03:45:26.582Z,57.28
2022-11-20T03:46:26.550Z,59.63
2022-11-20T03:47:26.562Z,57.96
2022-11-20T03:48:26.537Z,56.18
2022-11-20T03:49:26.526Z,56.16
2022-11-20T03:50:26.520Z,56.24
2022-11-20T03:51:26.516Z,58.43
2022-11-20T03:52:26.523Z,59.14
2022-11-20T03:53:26.500Z,57.27
2022-11-20T03:54:26.503Z,59.27
2022-11-20T03:55:26.475Z,59.32
2022-11-20T03:56:26.468Z,59.65
2022-11-20T03:57:26.468Z,55.92
2022-11-20T03:58:26.436Z,57.87
2022-11-20T03:59:26.438Z,55.77
2022-11-20T04:00:26.426Z,57.17
2022-11-20T04:01:26.465Z,58.07
2022-11-20T04:02:26.417Z,60.04
2022-11-20T04:03:26.402Z,55.82
2022-11-20T04:04:26.384Z,58.55
2022-11-20T04:05:26.423Z,59.06
2022-11-20T04:06:26.383Z,56.64
2022-11-20T04:07:26.481Z,59.98
2022-11-20T04:08:26.340Z,56.32
2022-11-20T04:09:27.342Z,57.44
2022-11-20T04:10:26.319Z,55.90
2022-11-20T04:11:26.327Z,57.52
2022-11-20T04:12:26.340Z,57.44
2022-11-20T04:13:26.336Z,59.42
2022-11-20T04:14:26.286Z,57.51
2022-11-20T04:15:26.286Z,58.39
2022-11-20T04:16:26.275Z,58.28
2022-11-20T04:17:26.303Z,56.95
2022-11-20T04:18:26.254Z,57.37
2022-11-20T04:19:26.268Z,56.74
2022-11-20T04:20:26.242Z,59.00
2022-11-20T04:21:26.235Z,59.21
2022-11-20T04:22:26.236Z,57.67
2022-11-20T04:23:28.843Z,57.47
2022-11-20T04:24:27.209Z,56.87
2022-11-20T04:25:26.199Z,58.25
2022-11-20T04:26:26.190Z,56.81
2022-11-20T04:27:26.204Z,57.31
2022-11-20T04:28:26.164Z,58.04
2022-11-20T04:29:26.149Z,57.36
2022-11-20T04:30:26.149Z,58.06
2022-11-20T04:31:26.140Z,57.89
2022-11-20T04:32:26.150Z,56.35
2022-11-20T04:33:27.946Z,58.30
2022-11-20T04:34:26.115Z,58.10
2022-11-20T04:35:26.107Z,57.79
2022-11-20T04:36:26.102Z,57.89
2022-11-20T04:37:26.129Z,57.21
2022-11-20T04:38:26.069Z,58.49
2022-11-20T04:39:26.069Z,57.31
2022-11-20T04:40:26.060Z,57.87
2022-11-20T04:41:26.040Z,57.77
2022-11-20T04:42:26.071Z,57.71
2022-11-20T04:43:26.033Z,59.62
2022-11-20T04:44:26.020Z,57.27
2022-11-20T04:45:26.008Z,57.44
2022-11-20T04:46:26.016Z,56.63
2022-11-20T04:47:26.006Z,56.74
2022-11-20T04:48:25.984Z,56.75
2022-11-20T04:49:25.993Z,58.63
2022-11-20T04:50:25.967Z,57.67
2022-11-20T04:51:25.953Z,57.20
2022-11-20T04:52:25.972Z,57.45
2022-11-20T04:53:25.944Z,56.91
2022-11-20T04:54:25.928Z,55.78
2022-11-20T04:55:25.921Z,59.32
2022-11-20T04:56:25.905Z,58.92
2022-11-20T04:57:25.915Z,57.49
2022-11-20T04:58:25.891Z,57.30
2022-11-20T04:59:25.882Z,56.67
2022-11-20T05:00:25.876Z,56.24
2022-11-20T05:01:25.917Z,57.00
2022-11-20T05:02:25.872Z,56.90
2022-11-20T05:03:25.846Z,58.36
2022-11-20T05:04:25.831Z,57.46
2022-11-20T05:05:25.819Z,58.60
2022-11-20T05:06:25.814Z,58.55
2022-11-20T05:07:25.834Z,58.98
2022-11-20T05:08:25.830Z,58.44
2022-11-20T05:09:25.790Z,57.29
2022-11-20T05:10:25.786Z,58.40
2022-11-20T05:11:25.829Z,60.37
2022-11-20T05:12:25.759Z,59.56
2022-11-20T05:13:25.776Z,57.89
2022-11-20T05:14:25.750Z,58.32
2022-11-20T05:15:25.723Z,57.32
2022-11-20T05:16:26.728Z,57.63
2022-11-20T05:17:25.715Z,56.87
2022-11-20T05:18:25.730Z,58.37
2022-11-20T05:19:25.693Z,57.85
2022-11-20T05:20:25.694Z,59.00
2022-11-20T05:21:25.666Z,57.32
2022-11-20T05:22:25.668Z,56.98
2022-11-20T05:23:25.674Z,56.64
2022-11-20T05:24:25.632Z,58.31
2022-11-20T05:25:25.639Z,58.97
2022-11-20T05:26:25.628Z,59.35
2022-11-20T05:27:25.614Z,57.86
2022-11-20T05:28:25.626Z,57.46
2022-11-20T05:29:25.602Z,56.21
2022-11-20T05:30:25.597Z,56.34
2022-11-20T05:31:27.933Z,57.79
2022-11-20T05:32:26.568Z,58.09
2022-11-20T05:33:25.587Z,58.11
2022-11-20T05:34:25.553Z,60.51
2022-11-20T05:35:25.552Z,59.42
2022-11-20T05:36:25.539Z,61.16
2022-11-20T05:37:25.540Z,58.10
2022-11-20T05:38:25.555Z,59.44
2022-11-20T05:39:25.516Z,58.59
2022-11-20T05:40:25.501Z,57.29
2022-11-20T05:41:25.497Z,57.85
2022-11-20T05:42:25.485Z,58.22
2022-11-20T05:43:25.503Z,60.08
2022-11-20T05:44:25.471Z,57.42
2022-11-20T05:45:25.463Z,58.39
2022-11-20T05:46:28.664Z,57.47
2022-11-20T05:47:37.476Z,57.02
2022-11-20T05:48:25.451Z,58.85
2022-11-20T05:49:25.427Z,55.80
2022-11-20T05:50:25.421Z,59.06
2022-11-20T05:51:25.405Z,56.27
2022-11-20T05:52:25.404Z,56.03
2022-11-20T05:53:27.632Z,55.81
2022-11-20T05:54:26.375Z,57.59
2022-11-20T05:55:25.361Z,56.72
2022-11-20T05:56:25.353Z,57.66
2022-11-20T05:57:25.354Z,58.67
2022-11-20T05:58:25.394Z,55.67
2022-11-20T05:59:25.326Z,57.73
2022-11-20T06:00:25.328Z,56.79
2022-11-20T06:01:25.315Z,57.47
2022-11-20T06:02:25.339Z,58.03
2022-11-20T06:03:25.334Z,57.22
2022-11-20T06:04:25.288Z,56.54
2022-11-20T06:05:25.280Z,56.85
2022-11-20T06:06:25.257Z,56.41
2022-11-20T06:07:25.286Z,56.99
2022-11-20T06:08:25.269Z,58.54
2022-11-20T06:09:25.240Z,58.27
2022-11-20T06:10:25.229Z,58.00
2022-11-20T06:11:25.218Z,56.38
2022-11-20T06:12:25.209Z,60.22
2022-11-20T06:13:25.234Z,57.86
2022-11-20T06:14:25.197Z,56.22
2022-11-20T06:15:25.188Z,56.93
2022-11-20T06:16:25.183Z,59.73
2022-11-20T06:17:25.178Z,57.37
2022-11-20T06:18:25.181Z,58.46
2022-11-20T06:19:25.142Z,59.27
2022-11-20T06:20:25.138Z,57.02
2022-11-20T06:21:25.132Z,57.63
2022-11-20T06:22:25.134Z,56.74
2022-11-20T06:23:25.162Z,55.88
2022-11-20T06:24:25.108Z,58.69
2022-11-20T06:25:25.089Z,57.80
2022-11-20T06:26:25.089Z,57.26
2022-11-20T06:27:25.082Z,58.67
2022-11-20T06:28:25.091Z,59.88
2022-11-20T06:29:28.873Z,58.71
2022-11-20T06:30:27.049Z,59.59
2022-11-20T06:31:25.043Z,59.63
2022-11-20T06:32:25.034Z,60.31
2022-11-20T06:33:25.040Z,60.52
2022-11-20T06:34:25.015Z,57.04
2022-11-20T06:35:25.008Z,56.96
2022-11-20T06:36:24.997Z,59.70
2022-11-20T06:37:24.989Z,58.18
2022-11-20T06:38:25.003Z,57.08
2022-11-20T06:39:25.093Z,56.57
2022-11-20T06:40:24.964Z,57.81
2022-11-20T06:41:24.957Z,58.57
2022-11-20T06:42:24.954Z,56.97
2022-11-20T06:43:24.962Z,57.95
2022-11-20T06:44:24.925Z,57.53
2022-11-20T06:45:24.919Z,59.27
2022-11-20T06:46:24.911Z,56.51
2022-11-20T06:47:24.894Z,57.31
2022-11-20T06:48:24.914Z,57.91
2022-11-20T06:49:25.229Z,58.89
2022-11-20T06:50:24.879Z,60.24
2022-11-20T06:51:24.859Z,59.16
2022-11-20T06:52:24.861Z,57.98
2022-11-20T06:53:24.873Z,56.39
2022-11-20T06:54:24.847Z,59.23
2022-11-20T06:55:24.817Z,58.11
2022-11-20T06:56:24.829Z,57.81
2022-11-20T06:57:24.820Z,60.62
2022-11-20T06:58:24.825Z,60.44
2022-11-20T06:59:24.859Z,59.82
2022-11-20T07:00:24.790Z,57.36
2022-11-20T07:01:24.832Z,58.82
2022-11-20T07:02:24.769Z,57.38
2022-11-20T07:03:24.775Z,58.19
2022-11-20T07:04:24.768Z,57.90
2022-11-20T07:05:24.749Z,57.96
2022-11-20T07:06:24.742Z,58.43
2022-11-20T07:07:24.773Z,59.52
2022-11-20T07:08:24.738Z,58.24
2022-11-20T07:09:25.131Z,58.61
2022-11-20T07:10:24.707Z,59.75
2022-11-20T07:11:24.695Z,58.63
2022-11-20T07:12:24.721Z,57.58
2022-11-20T07:13:24.700Z,57.36
2022-11-20T07:14:24.669Z,59.16
2022-11-20T07:15:24.654Z,57.96
2022-11-20T07:16:24.655Z,61.12
2022-11-20T07:17:24.649Z,59.73
2022-11-20T07:18:24.656Z,61.44
2022-11-20T07:19:24.614Z,59.37
2022-11-20T07:20:24.618Z,59.61
2022-11-20T07:21:24.609Z,61.64
2022-11-20T07:22:24.601Z,61.49
2022-11-20T07:23:24.603Z,61.11
2022-11-20T07:24:24.595Z,60.14
2022-11-20T07:25:24.575Z,61.86
2022-11-20T07:26:24.578Z,60.95
2022-11-20T07:27:24.559Z,61.62
2022-11-20T07:28:24.567Z,60.80
2022-11-20T07:29:24.540Z,62.40
2022-11-20T07:30:24.525Z,60.78
2022-11-20T07:31:24.516Z,60.52
2022-11-20T07:32:24.511Z,62.50
2022-11-20T07:33:24.531Z,61.21
2022-11-20T07:34:24.501Z,61.00
2022-11-20T07:35:24.482Z,61.64
2022-11-20T07:36:24.483Z,62.06
2022-11-20T07:37:24.478Z,63.52
2022-11-20T07:38:24.493Z,60.78
2022-11-20T07:39:24.448Z,62.20
2022-11-20T07:40:24.449Z,61.12
2022-11-20T07:41:24.441Z,59.55
2022-11-20T07:42:24.428Z,62.64
2022-11-20T07:43:24.436Z,61.40
2022-11-20T07:44:24.423Z,61.99
2022-11-20T07:45:24.410Z,60.93
2022-11-20T07:46:24.401Z,60.95
2022-11-20T07:47:24.403Z,60.44
2022-11-20T07:48:24.400Z,59.34
2022-11-20T07:49:24.535Z,61.55
2022-11-20T07:50:25.365Z,60.78
2022-11-20T07:51:24.355Z,61.43
2022-11-20T07:52:24.344Z,61.20
2022-11-20T07:53:24.374Z,60.62
2022-11-20T07:54:24.325Z,60.22
2022-11-20T07:55:24.314Z,60.58
2022-11-20T07:56:24.311Z,61.99
2022-11-20T07:57:28.168Z,62.68
2022-11-20T07:58:25.320Z,62.96
2022-11-20T07:59:24.481Z,63.45
2022-11-20T08:00:24.283Z,65.42
2022-11-20T08:01:24.289Z,62.92
2022-11-20T08:02:24.267Z,61.53
2022-11-20T08:03:25.208Z,61.81
2022-11-20T08:04:25.261Z,61.86
2022-11-20T08:05:24.222Z,61.71
2022-11-20T08:06:24.226Z,61.19
2022-11-20T08:07:24.245Z,63.27
2022-11-20T08:08:24.211Z,62.08
2022-11-20T08:09:24.218Z,61.95
2022-11-20T08:10:24.207Z,60.69
2022-11-20T08:11:24.175Z,61.24
2022-11-20T08:12:24.167Z,61.37
2022-11-20T08:13:24.166Z,62.86
2022-11-20T08:14:24.201Z,61.07
2022-11-20T08:15:24.147Z,63.84
2022-11-20T08:16:24.148Z,59.84
2022-11-20T08:17:24.134Z,61.81
2022-11-20T08:18:31.114Z,61.45
2022-11-20T08:19:26.123Z,64.65
2022-11-20T08:20:24.198Z,61.39
2022-11-20T08:21:24.092Z,61.00
2022-11-20T08:22:24.080Z,62.98
2022-11-20T08:23:24.075Z,63.19
2022-11-20T08:24:24.093Z,62.39
2022-11-20T08:25:24.059Z,63.18
2022-11-20T08:26:24.045Z,62.81
2022-11-20T08:27:24.023Z,64.07
2022-11-20T08:28:24.045Z,63.60
2022-11-20T08:29:24.357Z,64.31
2022-11-20T08:30:24.064Z,64.93
2022-11-20T08:31:23.998Z,62.77
2022-11-20T08:32:23.994Z,61.24
2022-11-20T08:33:23.980Z,62.12
2022-11-20T08:34:23.991Z,61.94
2022-11-20T08:35:23.953Z,64.39
2022-11-20T08:36:23.951Z,64.11
2022-11-20T08:37:23.947Z,62.09
2022-11-20T08:38:23.975Z,61.37
2022-11-20T08:39:24.263Z,63.63
2022-11-20T08:40:23.959Z,61.24
2022-11-20T08:41:23.897Z,63.38
2022-11-20T08:42:23.899Z,61.05
2022-11-20T08:43:23.877Z,59.37
2022-11-20T08:44:23.902Z,62.36
2022-11-20T08:45:23.873Z,62.65
2022-11-20T08:46:23.869Z,62.65
2022-11-20T08:47:23.858Z,63.09
2022-11-20T08:48:23.911Z,64.23
2022-11-20T08:49:24.169Z,62.81
2022-11-20T08:50:23.949Z,64.10
2022-11-20T08:51:23.823Z,64.38
2022-11-20T08:52:23.815Z,64.90
2022-11-20T08:53:23.807Z,64.37
2022-11-20T08:54:23.802Z,63.76
2022-11-20T08:55:23.784Z,62.64
2022-11-20T08:56:23.786Z,64.73
2022-11-20T08:57:23.774Z,63.65
2022-11-20T08:58:23.775Z,64.94
2022-11-20T08:59:43.783Z,63.43
2022-11-20T09:00:25.746Z,63.36
2022-11-20T09:01:23.799Z,63.44
2022-11-20T09:02:23.721Z,64.67
2022-11-20T09:03:27.413Z,64.18
2022-11-20T09:04:24.737Z,62.17
2022-11-20T09:05:23.698Z,65.51
2022-11-20T09:06:23.688Z,63.69
2022-11-20T09:07:23.740Z,63.56
2022-11-20T09:08:23.675Z,62.44
2022-11-20T09:09:24.032Z,64.49
2022-11-20T09:10:24.892Z,65.81
2022-11-20T09:11:23.764Z,64.42
2022-11-20T09:12:23.627Z,63.44
2022-11-20T09:13:23.635Z,62.87
2022-11-20T09:14:23.626Z,64.59
2022-11-20T09:15:23.614Z,61.65
2022-11-20T09:16:23.594Z,62.67
2022-11-20T09:17:23.588Z,62.55
2022-11-20T09:18:23.566Z,62.28
2022-11-20T09:19:39.015Z,64.56
2022-11-20T09:20:25.617Z,64.03
2022-11-20T09:21:23.615Z,64.43
2022-11-20T09:22:23.541Z,62.98
2022-11-20T09:23:23.531Z,63.80
2022-11-20T09:24:23.564Z,62.77
2022-11-20T09:25:23.511Z,64.93
2022-11-20T09:26:23.486Z,62.73
2022-11-20T09:27:23.494Z,63.77
2022-11-20T09:28:23.492Z,64.46
2022-11-20T09:29:23.728Z,61.50
2022-11-20T09:30:23.468Z,62.79
2022-11-20T09:31:23.462Z,63.43
2022-11-20T09:32:23.447Z,64.91
2022-11-20T09:33:23.448Z,63.99
2022-11-20T09:34:23.437Z,64.06
2022-11-20T09:35:23.428Z,63.78
2022-11-20T09:36:23.408Z,64.20
2022-11-20T09:37:23.400Z,64.16
2022-11-20T09:38:23.394Z,65.02
2022-11-20T09:39:23.961Z,64.91
2022-11-20T09:40:23.375Z,65.48
2022-11-20T09:41:23.360Z,65.86
2022-11-20T09:42:23.357Z,64.84
2022-11-20T09:43:23.347Z,63.83
2022-11-20T09:44:23.355Z,64.00
2022-11-20T09:45:23.321Z,65.32
2022-11-20T09:46:23.314Z,65.09
2022-11-20T09:47:23.309Z,64.29
2022-11-20T09:48:23.298Z,63.60
2022-11-20T09:49:27.560Z,65.87
2022-11-20T09:50:24.269Z,63.55
2022-11-20T09:51:23.269Z,64.20
2022-11-20T09:52:23.251Z,61.39
2022-11-20T09:53:23.234Z,63.77
2022-11-20T09:54:23.258Z,64.29
2022-11-20T09:55:23.224Z,62.32
2022-11-20T09:56:23.264Z,64.62
2022-11-20T09:57:23.189Z,63.84
2022-11-20T09:58:23.222Z,65.12
2022-11-20T09:59:23.555Z,63.29
2022-11-20T10:00:23.171Z,64.20
2022-11-20T10:01:23.365Z,63.85
2022-11-20T10:02:23.162Z,64.85
2022-11-20T10:03:23.142Z,64.21
2022-11-20T10:04:23.152Z,65.62
2022-11-20T10:05:23.126Z,65.39
2022-11-20T10:06:23.117Z,64.95
2022-11-20T10:07:32.252Z,65.46
2022-11-20T10:08:25.132Z,65.06
2022-11-20T10:09:23.477Z,65.83
2022-11-20T10:10:23.078Z,65.94
2022-11-20T10:11:23.059Z,66.16
2022-11-20T10:12:23.058Z,64.24
2022-11-20T10:13:23.041Z,65.91
2022-11-20T10:14:23.054Z,65.74
2022-11-20T10:15:23.030Z,64.40
2022-11-20T10:16:23.022Z,65.88
2022-11-20T10:17:23.003Z,65.24
2022-11-20T10:18:22.993Z,66.19
2022-11-20T10:19:23.294Z,63.48
2022-11-20T10:20:22.973Z,64.30
2022-11-20T10:21:22.960Z,66.20
2022-11-20T10:22:22.983Z,64.76
2022-11-20T10:23:25.957Z,65.63
2022-11-20T10:24:23.950Z,63.37
2022-11-20T10:25:22.928Z,66.02
2022-11-20T10:26:22.913Z,66.06
2022-11-20T10:27:22.911Z,66.82
2022-11-20T10:28:22.890Z,66.45
2022-11-20T10:29:24.120Z,65.46
2022-11-20T10:30:22.870Z,65.86
2022-11-20T10:31:22.868Z,65.29
2022-11-20T10:32:22.877Z,65.46
2022-11-20T10:33:22.854Z,65.97
2022-11-20T10:34:23.429Z,65.70
2022-11-20T10:35:23.824Z,66.22
2022-11-20T10:36:22.815Z,65.26
2022-11-20T10:37:22.790Z,65.06
2022-11-20T10:38:22.846Z,65.73
2022-11-20T10:39:24.204Z,64.23
2022-11-20T10:40:22.773Z,64.66
2022-11-20T10:41:22.766Z,64.01
2022-11-20T10:42:22.754Z,64.59
2022-11-20T10:43:22.746Z,64.98
2022-11-20T10:44:22.926Z,65.52
2022-11-20T10:45:22.711Z,65.88
2022-11-20T10:46:22.708Z,65.90
2022-11-20T10:47:22.713Z,64.64
2022-11-20T10:48:22.695Z,62.65
2022-11-20T10:49:23.102Z,65.81
2022-11-20T10:50:22.987Z,64.92
2022-11-20T10:51:22.660Z,64.08
2022-11-20T10:52:22.648Z,64.04
2022-11-20T10:53:22.631Z,64.28
2022-11-20T10:54:22.649Z,66.08
2022-11-20T10:55:22.614Z,66.66
2022-11-20T10:56:22.620Z,64.20
2022-11-20T10:57:22.600Z,66.36
2022-11-20T10:58:22.588Z,64.36
2022-11-20T10:59:22.841Z,65.60
2022-11-20T11:00:22.568Z,65.23
2022-11-20T11:01:22.639Z,64.83
2022-11-20T11:02:22.550Z,65.20
2022-11-20T11:03:22.533Z,66.41
2022-11-20T11:04:22.551Z,64.92
2022-11-20T11:05:22.508Z,64.41
2022-11-20T11:06:22.507Z,64.55
2022-11-20T11:07:22.587Z,65.62
2022-11-20T11:08:22.490Z,66.07
2022-11-20T11:09:22.746Z,64.41
2022-11-20T11:10:22.465Z,64.94
2022-11-20T11:11:22.462Z,64.05
2022-11-20T11:12:22.447Z,63.72
2022-11-20T11:13:22.443Z,64.86
2022-11-20T11:14:22.450Z,64.09
2022-11-20T11:15:22.419Z,64.22
2022-11-20T11:16:22.407Z,64.30
2022-11-20T11:17:23.385Z,64.81
2022-11-20T11:18:22.419Z,62.97
2022-11-20T11:19:22.720Z,64.08
2022-11-20T11:20:22.388Z,64.37
2022-11-20T11:21:22.361Z,62.72
2022-11-20T11:22:22.353Z,62.98
2022-11-20T11:23:22.359Z,64.73
2022-11-20T11:24:40.960Z,64.06
2022-11-20T11:25:24.344Z,66.36
2022-11-20T11:26:22.329Z,64.15
2022-11-20T11:27:22.299Z,65.49
2022-11-20T11:28:22.305Z,64.59
2022-11-20T11:29:22.657Z,62.49
2022-11-20T11:30:22.295Z,64.73
2022-11-20T11:31:22.265Z,63.46
2022-11-20T11:32:22.259Z,65.79
2022-11-20T11:33:22.240Z,63.95
2022-11-20T11:34:22.249Z,66.81
2022-11-20T11:35:22.249Z,64.26
2022-11-20T11:36:22.219Z,65.03
2022-11-20T11:37:22.210Z,65.72
2022-11-20T11:38:22.196Z,65.63
2022-11-20T11:39:22.644Z,64.80
2022-11-20T11:40:24.576Z,65.35
2022-11-20T11:41:23.156Z,65.65
2022-11-20T11:42:22.163Z,64.99
2022-11-20T11:43:22.155Z,67.03
2022-11-20T11:44:22.160Z,65.47
2022-11-20T11:45:22.153Z,64.54
2022-11-20T11:46:22.128Z,66.39
2022-11-20T11:47:22.117Z,65.25
2022-11-20T11:48:50.680Z,65.97
2022-11-20T11:49:22.374Z,66.05
2022-11-20T11:50:22.110Z,66.19
2022-11-20T11:51:22.075Z,66.28
2022-11-20T11:52:22.066Z,68.14
2022-11-20T11:53:22.060Z,67.02
2022-11-20T11:54:22.053Z,66.83
2022-11-20T11:55:22.065Z,65.50
2022-11-20T11:56:22.032Z,67.00
2022-11-20T11:57:22.024Z,67.07
2022-11-20T11:58:22.016Z,66.41
2022-11-20T11:59:22.211Z,66.83
2022-11-20T12:00:22.009Z,66.22
2022-11-20T12:01:21.991Z,65.99
2022-11-20T12:02:21.994Z,66.61
2022-11-20T12:03:21.971Z,66.10
2022-11-20T12:04:21.957Z,66.30
2022-11-20T12:05:21.968Z,66.05
2022-11-20T12:06:21.945Z,65.19
2022-11-20T12:07:45.521Z,66.47
2022-11-20T12:08:23.962Z,65.77
2022-11-20T12:09:22.361Z,66.25
2022-11-20T12:10:21.927Z,66.52
2022-11-20T12:11:21.888Z,64.89
2022-11-20T12:12:21.883Z,67.01
2022-11-20T12:13:21.877Z,66.78
2022-11-20T12:14:21.869Z,66.78
2022-11-20T12:15:21.876Z,65.20
2022-11-20T12:16:21.853Z,65.14
2022-11-20T12:17:21.841Z,65.62
2022-11-20T12:18:21.825Z,65.55
2022-11-20T12:19:22.165Z,66.67
2022-11-20T12:20:21.825Z,65.30
2022-11-20T12:21:21.801Z,66.22
2022-11-20T12:22:21.795Z,65.60
2022-11-20T12:23:21.785Z,65.76
2022-11-20T12:24:21.776Z,65.54
2022-11-20T12:25:21.785Z,65.64
2022-11-20T12:26:21.753Z,65.93
2022-11-20T12:27:21.747Z,66.47
2022-11-20T12:28:21.730Z,65.43
2022-11-20T12:29:22.006Z,65.20
2022-11-20T12:30:21.730Z,65.76
2022-11-20T12:31:21.723Z,64.11
2022-11-20T12:32:21.707Z,63.15
2022-11-20T12:33:21.690Z,64.08
2022-11-20T12:34:21.678Z,63.94
2022-11-20T12:35:21.694Z,64.47
2022-11-20T12:36:21.661Z,63.50
2022-11-20T12:37:21.659Z,64.19
2022-11-20T12:38:21.634Z,64.08
2022-11-20T12:39:22.021Z,62.72
2022-11-20T12:40:21.637Z,63.44
2022-11-20T12:41:21.606Z,63.86
2022-11-20T12:42:21.604Z,64.11
2022-11-20T12:43:21.601Z,64.34
2022-11-20T12:44:21.587Z,64.06
2022-11-20T12:45:21.617Z,63.86
2022-11-20T12:46:21.578Z,63.11
2022-11-20T12:47:21.561Z,62.45
2022-11-20T12:48:21.537Z,62.85
2022-11-20T12:49:21.891Z,63.14
2022-11-20T12:50:21.547Z,63.22
2022-11-20T12:51:21.510Z,63.75
2022-11-20T12:52:21.506Z,64.32